Time;durP1;ratioP1;P1;durP2;ratioP2;P2;SDS_P1;SDS_P2;PMS_P1;PMS_P2;Temp;Humidity;BMP_temperature;BMP_pressure;BME280_temperature;BME280_humidity;BME280_pressure;Samples;Min_cycle;Max_cycle;Signal;HPM_P1;HPM_P2
2022/10/09 00:00:25;;;;;;;9.80;6.07;;;;;;;;;;4953662;28;20027;-68
2022/10/09 00:02:51;;;;;;;8.18;6.82;;;;;;;;;;4953713;28;20067;-69
2022/10/09 00:05:28;;;;;;;12.90;6.75;;;;;;;;;;4953381;28;20039;-69
2022/10/09 00:07:53;;;;;;;13.98;7.05;;;;;;;;;;4937237;28;20077;-69
2022/10/09 00:10:25;;;;;;;8.95;5.65;;;;;;;;;;4955373;28;20059;-69
2022/10/09 00:12:50;;;;;;;8.13;6.65;;;;;;;;;;4954877;28;20050;-70
2022/10/09 00:15:18;;;;;;;9.63;5.95;;;;;;;;;;4954191;28;20127;-69
2022/10/09 00:17:46;;;;;;;10.38;6.72;;;;;;;;;;4954609;28;20026;-69
2022/10/09 00:20:14;;;;;;;13.13;6.28;;;;;;;;;;4952881;28;20073;-69
2022/10/09 00:22:39;;;;;;;9.02;6.05;;;;;;;;;;4955166;28;20039;-68
2022/10/09 00:25:36;;;;;;;;;;;;;;;;;;;;;
2022/10/09 00:27:59;;;;;;;6.72;6.07;;;;;;;;;;4952001;28;20049;-69
2022/10/09 00:30:48;;;;;;;9.40;5.80;;;;;;;;;;4953260;28;20122;-68
2022/10/09 00:33:10;;;;;;;9.18;5.38;;;;;;;;;;4949032;28;20035;-69
2022/10/09 00:35:42;;;;;;;8.30;5.55;;;;;;;;;;4948820;28;20066;-69
2022/10/09 00:38:10;;;;;;;10.13;6.05;;;;;;;;;;4953414;28;20039;-68
2022/10/09 00:40:58;;;;;;;9.13;6.43;;;;;;;;;;4954236;28;20051;-69
2022/10/09 00:43:45;;;;;;;10.70;5.50;;;;;;;;;;4953565;28;20031;-69
2022/10/09 00:46:45;;;;;;;8.20;6.32;;;;;;;;;;4953966;28;20015;-69
2022/10/09 00:49:15;;;;;;;10.35;6.75;;;;;;;;;;4955190;28;20063;-68
2022/10/09 00:52:14;;;;;;;;;;;;;;;;;;;;;
2022/10/09 00:57:40;;;;;;;11.55;7.68;;;;;;;;;;4881082;29;20819;-67
2022/10/09 01:00:47;;;;;;;8.82;6.57;;;;;;;;;;4882141;29;20041;-63
2022/10/09 01:09:48;;;;;;;7.95;6.35;;;;;;;;;;4861474;29;20049;-62
2022/10/09 01:12:19;;;;;;;9.93;7.53;;;;;;;;;;4860755;29;20098;-63
2022/10/09 01:15:50;;;;;;;11.88;8.52;;;;;;;;;;4862639;29;20057;-62
2022/10/09 01:18:02;;;;;;;8.30;6.68;;;;;;;;;;4758449;30;20040;-62
2022/10/09 01:20:58;;;;;;;;;;;;;;;;;;;;;
2022/10/09 01:23:34;;;;;;;7.65;6.38;;;;;;;;;;4860651;29;20049;-63
2022/10/09 01:26:18;;;;;;;8.45;6.82;;;;;;;;;;4857090;29;20025;-63
2022/10/09 01:29:06;;;;;;;13.00;6.30;;;;;;;;;;4859182;29;20041;-63
2022/10/09 01:31:37;;;;;;;8.02;6.38;;;;;;;;;;4851257;29;20094;-62
2022/10/09 01:34:04;;;;;;;12.48;8.40;;;;;;;;;;4878468;29;20069;-62
2022/10/09 01:36:38;;;;;;;9.13;5.55;;;;;;;;;;4933116;28;20043;-62
2022/10/09 01:39:14;;;;;;;6.90;5.30;;;;;;;;;;4932226;29;20043;-62
2022/10/09 01:42:02;;;;;;;8.68;6.20;;;;;;;;;;4933778;29;20038;-63
2022/10/09 01:44:31;;;;;;;8.82;6.32;;;;;;;;;;4923291;29;20035;-63
2022/10/09 01:47:10;;;;;;;;;;;;;;;;;;;;;
2022/10/09 01:49:41;;;;;;;6.65;5.97;;;;;;;;;;4918677;29;20506;-64
2022/10/09 01:52:15;;;;;;;9.57;5.50;;;;;;;;;;4935023;29;20519;-64
2022/10/09 01:54:56;;;;;;;10.37;6.07;;;;;;;;;;4933012;28;20132;-64
2022/10/09 01:57:38;;;;;;;9.98;6.03;;;;;;;;;;4935058;29;20134;-64
2022/10/09 02:00:09;;;;;;;7.50;5.22;;;;;;;;;;4933417;28;20043;-64
2022/10/09 02:02:58;;;;;;;8.27;6.05;;;;;;;;;;4934209;29;20031;-63
2022/10/09 02:05:36;;;;;;;10.85;6.20;;;;;;;;;;4932574;29;20548;-63
2022/10/09 02:08:12;;;;;;;8.32;6.00;;;;;;;;;;4930913;29;20031;-63
2022/10/09 02:10:49;;;;;;;11.93;5.47;;;;;;;;;;4930119;28;20044;-62
2022/10/09 02:13:23;;;;;;;6.93;5.55;;;;;;;;;;4932975;29;20051;-64
2022/10/09 02:19:42;;;;;;;5.65;4.47;;;;;;;;;;4923332;29;20023;-63
2022/10/09 02:22:06;;;;;;;5.00;4.50;;;;;;;;;;4929655;29;20058;-63
2022/10/09 02:24:35;;;;;;;7.70;5.38;;;;;;;;;;4933425;28;20070;-64
2022/10/09 02:27:37;;;;;;;;;;;;;;;;;;;;;
2022/10/09 02:29:52;;;;;;;8.20;5.28;;;;;;;;;;4928505;29;20077;-63
2022/10/09 02:32:20;;;;;;;6.10;4.80;;;;;;;;;;4935135;29;20043;-63
2022/10/09 02:37:51;;;;;;;4.85;3.90;;;;;;;;;;4902112;29;20050;-63
2022/10/09 02:40:25;;;;;;;6.20;4.63;;;;;;;;;;4894761;29;20044;-64
2022/10/09 02:43:42;;;;;;;6.32;4.70;;;;;;;;;;4885005;29;20047;-63
2022/10/09 02:45:51;;;;;;;7.75;5.03;;;;;;;;;;4893488;29;20036;-63
2022/10/09 02:51:19;;;;;;;4.47;4.07;;;;;;;;;;4892203;29;20062;-63
2022/10/09 02:54:03;;;;;;;5.13;4.40;;;;;;;;;;4897129;29;20043;-63
2022/10/09 02:56:37;;;;;;;6.05;4.18;;;;;;;;;;4899211;29;20678;-64
2022/10/09 02:59:05;;;;;;;5.60;4.57;;;;;;;;;;4901731;29;20114;-64
2022/10/09 03:01:51;;;;;;;4.20;3.80;;;;;;;;;;4901918;29;20044;-63
2022/10/09 03:04:25;;;;;;;;;;;;;;;;;;4901534;29;20044;-64
2022/10/09 03:06:56;;;;;;;4.68;4.22;;;;;;;;;;4899931;29;19911;-64
2022/10/09 03:09:30;;;;;;;6.28;3.95;;;;;;;;;;4897102;29;20048;-64
2022/10/09 03:12:01;;;;;;;7.97;4.55;;;;;;;;;;4896815;29;20578;-63
2022/10/09 03:14:29;;;;;;;4.82;4.25;;;;;;;;;;4914272;29;20033;-64
2022/10/09 03:16:57;;;;;;;5.80;4.47;;;;;;;;;;4924957;29;20035;-64
2022/10/09 03:19:22;;;;;;;8.02;4.55;;;;;;;;;;4928288;29;20027;-64
2022/10/09 03:21:54;;;;;;;5.65;4.90;;;;;;;;;;4931485;29;20042;-63
2022/10/09 03:24:24;;;;;;;6.18;4.03;;;;;;;;;;4934668;29;20027;-64
2022/10/09 03:26:55;;;;;;;5.43;3.60;;;;;;;;;;4929215;29;20035;-64
2022/10/09 03:29:41;;;;;;;5.70;3.70;;;;;;;;;;4931562;29;20039;-64
2022/10/09 03:32:38;;;;;;;5.70;3.25;;;;;;;;;;4934203;29;20082;-64
2022/10/09 03:35:00;;;;;;;4.95;3.83;;;;;;;;;;4929059;28;20039;-63
2022/10/09 03:37:31;;;;;;;4.85;3.67;;;;;;;;;;4928329;29;20141;-64
2022/10/09 03:40:05;;;;;;;3.22;2.90;;;;;;;;;;4931925;29;20043;-63
2022/10/09 03:42:40;;;;;;;4.68;3.40;;;;;;;;;;4932711;28;20063;-64
2022/10/09 03:45:11;;;;;;;4.55;3.20;;;;;;;;;;4915881;29;20146;-63
2022/10/09 03:47:48;;;;;;;6.03;2.83;;;;;;;;;;4914698;29;20040;-63
2022/10/09 03:50:17;;;;;;;6.07;2.88;;;;;;;;;;4913081;29;20119;-63
2022/10/09 03:52:42;;;;;;;4.07;3.05;;;;;;;;;;4932707;29;20036;-63
2022/10/09 03:55:07;;;;;;;4.60;2.47;;;;;;;;;;4929179;28;20047;-63
2022/10/09 03:57:33;;;;;;;5.18;2.83;;;;;;;;;;4929758;29;20688;-65
2022/10/09 03:59:58;;;;;;;3.13;2.67;;;;;;;;;;4932029;29;20030;-62
2022/10/09 04:02:23;;;;;;;3.17;2.85;;;;;;;;;;4932373;29;20129;-62
2022/10/09 04:04:48;;;;;;;3.92;3.10;;;;;;;;;;4931789;29;20774;-64
2022/10/09 04:07:14;;;;;;;2.78;2.58;;;;;;;;;;4928255;29;20045;-65
2022/10/09 04:09:39;;;;;;;11.32;3.58;;;;;;;;;;4933542;29;20023;-63
2022/10/09 04:12:04;;;;;;;3.65;2.40;;;;;;;;;;4933178;29;20056;-64
2022/10/09 04:14:29;;;;;;;6.38;2.70;;;;;;;;;;4933473;29;20490;-63
2022/10/09 04:16:55;;;;;;;7.18;3.10;;;;;;;;;;4932804;29;20039;-62
2022/10/09 04:19:20;;;;;;;4.22;3.35;;;;;;;;;;4933057;28;20039;-62
2022/10/09 04:21:45;;;;;;;4.97;2.90;;;;;;;;;;4931682;29;20595;-62
2022/10/09 04:24:10;;;;;;;5.97;3.53;;;;;;;;;;4932732;29;20036;-62
2022/10/09 04:26:36;;;;;;;3.90;3.30;;;;;;;;;;4932447;29;20032;-63
2022/10/09 04:29:01;;;;;;;5.22;3.50;;;;;;;;;;4935441;29;20058;-62
2022/10/09 04:31:27;;;;;;;4.85;3.28;;;;;;;;;;4920536;29;20047;-62
2022/10/09 04:33:55;;;;;;;7.40;4.03;;;;;;;;;;4935913;29;20036;-63
2022/10/09 04:36:20;;;;;;;5.68;3.60;;;;;;;;;;4937088;29;20042;-62
2022/10/09 04:38:45;;;;;;;4.82;3.60;;;;;;;;;;4936783;29;20023;-62
2022/10/09 04:41:11;;;;;;;8.80;3.97;;;;;;;;;;4924656;29;20067;-65
2022/10/09 04:43:36;;;;;;;4.18;3.10;;;;;;;;;;4920172;29;20046;-64
2022/10/09 04:46:06;;;;;;;4.43;3.38;;;;;;;;;;4936235;29;20135;-63
2022/10/09 04:48:36;;;;;;;3.80;3.00;;;;;;;;;;4933640;28;20043;-64
2022/10/09 04:51:02;;;;;;;5.05;3.88;;;;;;;;;;4923253;29;20533;-64
2022/10/09 04:53:28;;;;;;;4.18;3.13;;;;;;;;;;4933605;29;20066;-64
2022/10/09 04:55:53;;;;;;;3.80;2.88;;;;;;;;;;4932208;29;20139;-64
2022/10/09 04:58:18;;;;;;;4.38;3.30;;;;;;;;;;4919151;29;20118;-61
2022/10/09 05:00:44;;;;;;;3.80;3.22;;;;;;;;;;4932327;29;20028;-63
2022/10/09 05:03:10;;;;;;;3.30;2.45;;;;;;;;;;4935331;29;20044;-63
2022/10/09 05:05:35;;;;;;;4.35;2.53;;;;;;;;;;4934600;29;20114;-63
2022/10/09 05:08:00;;;;;;;5.70;2.63;;;;;;;;;;4934714;29;20545;-64
2022/10/09 05:10:26;;;;;;;5.93;3.97;;;;;;;;;;4934673;29;20039;-63
2022/10/09 05:12:51;;;;;;;7.00;2.80;;;;;;;;;;4935931;29;20540;-64
2022/10/09 05:15:18;;;;;;;5.63;3.00;;;;;;;;;;4934655;29;20042;-64
2022/10/09 05:17:43;;;;;;;5.93;3.25;;;;;;;;;;4934003;29;20026;-62
2022/10/09 05:20:08;;;;;;;4.38;3.10;;;;;;;;;;4934980;29;20024;-64
2022/10/09 05:22:34;;;;;;;3.45;2.92;;;;;;;;;;4932153;28;20074;-62
2022/10/09 05:24:59;;;;;;;6.40;3.28;;;;;;;;;;4930953;29;20525;-61
2022/10/09 05:27:24;;;;;;;7.63;3.42;;;;;;;;;;4933158;29;20135;-62
2022/10/09 05:29:50;;;;;;;6.05;3.28;;;;;;;;;;4930616;29;20146;-61
2022/10/09 05:32:15;;;;;;;8.82;3.83;;;;;;;;;;4931194;28;20045;-62
2022/10/09 05:34:40;;;;;;;4.22;2.97;;;;;;;;;;4932428;29;20074;-62
2022/10/09 05:37:06;;;;;;;4.75;3.05;;;;;;;;;;4933607;28;20122;-61
2022/10/09 05:39:31;;;;;;;3.15;2.72;;;;;;;;;;4933857;29;20036;-63
2022/10/09 05:41:57;;;;;;;4.80;3.30;;;;;;;;;;4930763;29;20206;-63
2022/10/09 05:44:22;;;;;;;4.85;3.33;;;;;;;;;;4930774;29;20378;-62
2022/10/09 05:46:47;;;;;;;5.72;2.78;;;;;;;;;;4932084;29;20031;-62
2022/10/09 05:49:12;;;;;;;4.93;3.13;;;;;;;;;;4931687;29;20027;-62
2022/10/09 05:51:38;;;;;;;7.75;3.72;;;;;;;;;;4932423;29;20027;-62
2022/10/09 05:54:04;;;;;;;5.93;3.47;;;;;;;;;;4935235;29;20640;-60
2022/10/09 05:56:31;;;;;;;6.72;4.28;;;;;;;;;;4933789;28;20030;-62
2022/10/09 05:58:57;;;;;;;4.85;3.83;;;;;;;;;;4933953;29;20054;-62
2022/10/09 06:01:24;;;;;;;4.00;3.30;;;;;;;;;;4934834;29;21040;-62
2022/10/09 06:03:50;;;;;;;5.28;2.90;;;;;;;;;;4931999;28;20047;-62
2022/10/09 06:06:15;;;;;;;5.07;3.55;;;;;;;;;;4933876;29;20039;-62
2022/10/09 06:08:41;;;;;;;5.28;3.55;;;;;;;;;;4918912;29;20031;-61
2022/10/09 06:11:09;;;;;;;5.03;3.63;;;;;;;;;;4918173;29;20037;-61
2022/10/09 06:13:34;;;;;;;6.85;4.00;;;;;;;;;;4934073;29;20086;-61
2022/10/09 06:15:59;;;;;;;5.50;3.15;;;;;;;;;;4933253;28;20522;-63
2022/10/09 06:18:26;;;;;;;5.65;2.30;;;;;;;;;;4933188;29;20043;-62
2022/10/09 06:20:52;;;;;;;8.35;2.95;;;;;;;;;;4934275;29;20608;-61
2022/10/09 06:23:18;;;;;;;2.85;2.40;;;;;;;;;;4929667;29;20116;-62
2022/10/09 06:26:03;;;;;;;3.85;2.40;;;;;;;;;;4931558;29;20625;-62
2022/10/09 06:28:29;;;;;;;4.22;3.03;;;;;;;;;;4933556;29;20039;-62
2022/10/09 06:30:59;;;;;;;5.55;2.72;;;;;;;;;;4933334;28;20522;-65
2022/10/09 06:33:24;;;;;;;4.47;2.42;;;;;;;;;;4930486;29;20470;-66
2022/10/09 06:35:49;;;;;;;4.22;2.33;;;;;;;;;;4931710;29;20470;-66
2022/10/09 06:38:16;;;;;;;3.33;2.17;;;;;;;;;;4929219;29;20082;-66
2022/10/09 06:40:42;;;;;;;5.32;1.98;;;;;;;;;;4929372;28;20354;-66
2022/10/09 06:43:07;;;;;;;4.80;2.50;;;;;;;;;;4930041;29;20487;-65
2022/10/09 06:45:35;;;;;;;3.72;2.08;;;;;;;;;;4930422;29;20038;-64
2022/10/09 06:48:00;;;;;;;3.50;2.35;;;;;;;;;;4933819;29;20019;-64
2022/10/09 06:50:26;;;;;;;5.72;2.92;;;;;;;;;;4932806;29;20028;-67
2022/10/09 06:52:51;;;;;;;5.35;2.25;;;;;;;;;;4933316;29;20427;-66
2022/10/09 06:55:16;;;;;;;3.72;2.20;;;;;;;;;;4931242;29;20466;-65
2022/10/09 06:57:41;;;;;;;4.15;2.47;;;;;;;;;;4931386;29;20034;-65
2022/10/09 07:00:07;;;;;;;3.10;2.40;;;;;;;;;;4928601;29;20041;-66
2022/10/09 07:02:32;;;;;;;4.38;2.50;;;;;;;;;;4928161;28;20549;-66
2022/10/09 07:04:58;;;;;;;5.43;3.13;;;;;;;;;;4915703;29;20031;-66
2022/10/09 07:07:23;;;;;;;3.17;1.70;;;;;;;;;;4929960;29;20181;-66
2022/10/09 07:09:48;;;;;;;2.88;2.22;;;;;;;;;;4930245;29;20478;-66
2022/10/09 07:12:13;;;;;;;2.78;1.90;;;;;;;;;;4930056;28;20115;-66
2022/10/09 07:14:39;;;;;;;4.38;2.22;;;;;;;;;;4930712;29;20045;-66
2022/10/09 07:17:04;;;;;;;4.35;2.30;;;;;;;;;;4931772;28;20747;-66
2022/10/09 07:19:30;;;;;;;4.13;2.95;;;;;;;;;;4931269;29;20540;-67
2022/10/09 07:21:55;;;;;;;2.80;2.22;;;;;;;;;;4928485;29;20035;-66
2022/10/09 07:24:23;;;;;;;2.50;2.20;;;;;;;;;;4929937;29;20035;-63
2022/10/09 07:26:49;;;;;;;3.17;2.40;;;;;;;;;;4930115;29;20086;-62
2022/10/09 07:29:15;;;;;;;5.28;2.17;;;;;;;;;;4933258;29;20032;-62
2022/10/09 07:31:40;;;;;;;2.90;2.05;;;;;;;;;;4926959;29;20487;-62
2022/10/09 07:34:05;;;;;;;4.40;2.10;;;;;;;;;;4930588;29;20028;-62
2022/10/09 07:36:31;;;;;;;3.05;1.90;;;;;;;;;;4930720;29;20079;-62
2022/10/09 07:38:57;;;;;;;3.85;2.22;;;;;;;;;;4933408;28;20122;-61
2022/10/09 07:41:23;;;;;;;5.70;2.13;;;;;;;;;;4932814;29;20118;-61
2022/10/09 07:43:48;;;;;;;3.42;2.20;;;;;;;;;;4933846;29;20038;-62
2022/10/09 07:46:15;;;;;;;3.00;2.20;;;;;;;;;;4928998;29;20039;-64
2022/10/09 07:48:40;;;;;;;3.22;1.88;;;;;;;;;;4929181;29;20098;-62
2022/10/09 07:51:25;;;;;;;3.35;2.28;;;;;;;;;;4932410;29;20042;-64
2022/10/09 07:53:50;;;;;;;;;;;;;;;;;;4934845;29;20039;-64
2022/10/09 07:56:20;;;;;;;3.03;2.00;;;;;;;;;;4936390;29;19937;-64
2022/10/09 07:58:49;;;;;;;3.70;2.28;;;;;;;;;;4937201;29;20102;-64
2022/10/09 08:01:14;;;;;;;3.90;2.63;;;;;;;;;;4932603;29;20031;-64
2022/10/09 08:03:40;;;;;;;4.13;2.22;;;;;;;;;;4933342;29;20452;-65
2022/10/09 08:06:05;;;;;;;6.45;2.10;;;;;;;;;;4936637;29;20078;-64
2022/10/09 08:08:30;;;;;;;2.95;1.83;;;;;;;;;;4936476;29;20487;-64
2022/10/09 08:10:56;;;;;;;5.18;2.35;;;;;;;;;;4935960;28;20035;-66
2022/10/09 08:13:21;;;;;;;3.28;2.13;;;;;;;;;;4920815;29;20051;-64
2022/10/09 08:15:46;;;;;;;4.20;2.00;;;;;;;;;;4936031;29;20034;-63
2022/10/09 08:18:12;;;;;;;2.05;1.95;;;;;;;;;;4936891;29;20114;-63
2022/10/09 08:20:37;;;;;;;3.90;2.53;;;;;;;;;;4935495;29;20062;-63
2022/10/09 08:23:03;;;;;;;2.63;2.42;;;;;;;;;;4934906;29;20463;-64
2022/10/09 08:25:28;;;;;;;2.38;1.73;;;;;;;;;;4932304;29;20062;-64
2022/10/09 08:27:54;;;;;;;3.75;1.88;;;;;;;;;;4935894;29;20031;-64
2022/10/09 08:30:19;;;;;;;4.55;2.50;;;;;;;;;;4936384;29;20022;-65
2022/10/09 08:32:45;;;;;;;3.33;1.90;;;;;;;;;;4935158;29;20046;-64
2022/10/09 08:35:10;;;;;;;2.42;1.90;;;;;;;;;;4933532;29;20039;-64
2022/10/09 08:37:35;;;;;;;3.10;1.88;;;;;;;;;;4933913;28;20031;-64
2022/10/09 08:40:02;;;;;;;4.80;2.10;;;;;;;;;;4933792;29;20055;-63
2022/10/09 08:42:30;;;;;;;2.70;2.50;;;;;;;;;;4935022;29;20035;-67
2022/10/09 08:44:56;;;;;;;3.05;1.70;;;;;;;;;;4932507;28;20623;-64
2022/10/09 08:47:41;;;;;;;1.80;1.52;;;;;;;;;;4932383;29;20110;-64
2022/10/09 08:50:11;;;;;;;3.38;1.88;;;;;;;;;;4925625;29;20039;-67
2022/10/09 08:52:36;;;;;;;2.03;1.50;;;;;;;;;;4932009;28;20243;-64
2022/10/09 08:55:12;;;;;;;2.90;2.05;;;;;;;;;;4932163;28;20082;-64
2022/10/09 08:57:38;;;;;;;3.17;1.88;;;;;;;;;;4934348;29;20031;-64
2022/10/09 09:00:09;;;;;;;3.45;1.63;;;;;;;;;;4936503;29;20027;-65
2022/10/09 09:02:46;;;;;;;8.25;1.80;;;;;;;;;;4936087;29;20118;-64
2022/10/09 09:05:30;;;;;;;1.88;1.70;;;;;;;;;;4934571;29;20028;-64
2022/10/09 09:08:15;;;;;;;3.40;1.73;;;;;;;;;;4936337;29;20026;-63
2022/10/09 09:10:54;;;;;;;2.38;1.92;;;;;;;;;;4896700;29;20352;-65
2022/10/09 09:13:31;;;;;;;2.85;1.80;;;;;;;;;;4936058;29;20063;-65
2022/10/09 09:15:59;;;;;;;3.33;1.80;;;;;;;;;;4933197;29;20737;-64
2022/10/09 09:18:35;;;;;;;4.20;1.77;;;;;;;;;;4932124;29;20159;-64
2022/10/09 09:21:05;;;;;;;3.72;2.05;;;;;;;;;;4937000;29;20035;-65
2022/10/09 09:23:35;;;;;;;3.95;2.05;;;;;;;;;;4937035;29;20032;-64
2022/10/09 09:26:01;;;;;;;2.17;2.05;;;;;;;;;;4935345;29;20122;-64
2022/10/09 09:28:32;;;;;;;2.47;2.22;;;;;;;;;;4920130;29;20034;-63
2022/10/09 09:31:16;;;;;;;3.45;1.83;;;;;;;;;;4936584;29;20102;-64
2022/10/09 09:33:51;;;;;;;4.50;2.10;;;;;;;;;;4934703;29;20026;-60
2022/10/09 09:36:25;;;;;;;1.70;1.60;;;;;;;;;;4935521;29;20027;-61
2022/10/09 09:38:51;;;;;;;2.95;1.60;;;;;;;;;;4934817;29;20027;-62
2022/10/09 09:41:16;;;;;;;1.88;1.73;;;;;;;;;;4935044;29;20471;-61
2022/10/09 09:43:41;;;;;;;2.75;1.88;;;;;;;;;;4919421;29;20063;-63
2022/10/09 09:46:11;;;;;;;2.25;1.90;;;;;;;;;;4934328;29;20034;-62
2022/10/09 09:48:38;;;;;;;4.13;2.10;;;;;;;;;;4932495;29;20487;-62
2022/10/09 09:51:11;;;;;;;3.28;1.85;;;;;;;;;;4930025;29;20031;-62
2022/10/09 09:53:41;;;;;;;2.40;1.90;;;;;;;;;;4933607;29;21061;-61
2022/10/09 09:56:06;;;;;;;5.22;2.40;;;;;;;;;;4936012;29;20046;-62
2022/10/09 09:58:52;;;;;;;3.05;2.17;;;;;;;;;;4929619;29;20055;-60
2022/10/09 10:01:20;;;;;;;2.58;1.90;;;;;;;;;;4929552;29;20035;-60
2022/10/09 10:03:49;;;;;;;2.67;1.85;;;;;;;;;;4929502;29;20692;-62
2022/10/09 10:06:27;;;;;;;4.90;4.40;;;;;;;;;;4930817;29;20029;-65
2022/10/09 10:09:12;;;;;;;4.47;3.92;;;;;;;;;;4933133;29;20039;-65
2022/10/09 10:11:41;;;;;;;4.93;2.28;;;;;;;;;;4933523;29;20052;-71
2022/10/09 10:14:07;;;;;;;3.67;1.80;;;;;;;;;;4933690;29;20067;-67
2022/10/09 10:16:35;;;;;;;2.85;1.98;;;;;;;;;;4921948;29;20591;-66
2022/10/09 10:19:00;;;;;;;4.30;2.10;;;;;;;;;;4914462;29;20059;-70
2022/10/09 10:21:25;;;;;;;3.53;2.08;;;;;;;;;;4932816;29;20151;-70
2022/10/09 10:23:53;;;;;;;3.70;2.22;;;;;;;;;;4933222;29;20039;-70
2022/10/09 10:26:24;;;;;;;4.15;2.28;;;;;;;;;;4925039;29;20514;-71
2022/10/09 10:28:59;;;;;;;5.10;2.10;;;;;;;;;;4929212;29;20059;-70
2022/10/09 10:31:33;;;;;;;3.60;1.85;;;;;;;;;;4930380;29;20106;-69
2022/10/09 10:34:01;;;;;;;2.67;2.13;;;;;;;;;;4931246;28;20043;-67
2022/10/09 10:36:27;;;;;;;4.78;2.30;;;;;;;;;;4933591;29;20111;-65
2022/10/09 10:38:57;;;;;;;2.78;1.90;;;;;;;;;;4934104;29;20031;-66
2022/10/09 10:41:25;;;;;;;4.30;2.22;;;;;;;;;;4934156;28;20090;-66
2022/10/09 10:43:53;;;;;;;2.88;2.42;;;;;;;;;;4933434;29;20035;-67
2022/10/09 10:46:22;;;;;;;2.38;2.17;;;;;;;;;;4932797;29;20032;-65
2022/10/09 10:48:48;;;;;;;4.15;2.38;;;;;;;;;;4929024;29;20030;-67
2022/10/09 10:51:32;;;;;;;3.38;2.13;;;;;;;;;;4930182;28;20490;-61
2022/10/09 10:54:15;;;;;;;4.20;2.20;;;;;;;;;;4932379;29;20035;-68
2022/10/09 10:56:46;;;;;;;3.90;2.40;;;;;;;;;;4929585;29;20032;-70
2022/10/09 10:59:17;;;;;;;3.10;2.17;;;;;;;;;;4928096;28;20563;-69
2022/10/09 11:01:57;;;;;;;2.55;2.33;;;;;;;;;;4930495;29;20070;-69
2022/10/09 11:04:25;;;;;;;2.50;2.20;;;;;;;;;;4932719;29;20063;-68
2022/10/09 11:06:56;;;;;;;5.38;2.88;;;;;;;;;;4934587;29;20027;-68
2022/10/09 11:09:21;;;;;;;2.92;1.90;;;;;;;;;;4930732;29;20040;-68
2022/10/09 11:11:56;;;;;;;2.70;2.20;;;;;;;;;;4929731;29;20538;-71
2022/10/09 11:14:21;;;;;;;2.77;2.17;;;;;;;;;;4921855;29;20039;-71
2022/10/09 11:17:25;;;;;;;7.82;2.65;;;;;;;;;;4929247;29;20259;-73
2022/10/09 11:19:56;;;;;;;3.67;2.55;;;;;;;;;;4894892;29;20075;-68
2022/10/09 11:22:30;;;;;;;2.50;2.00;;;;;;;;;;4894307;29;20052;-69
2022/10/09 11:25:02;;;;;;;2.80;2.00;;;;;;;;;;4895180;29;20064;-69
2022/10/09 11:27:28;;;;;;;10.13;2.08;;;;;;;;;;4897024;29;20595;-71
2022/10/09 11:29:57;;;;;;;3.58;2.58;;;;;;;;;;4898182;29;20076;-70
2022/10/09 11:32:22;;;;;;;4.43;2.78;;;;;;;;;;4896582;29;20047;-69
2022/10/09 11:34:51;;;;;;;2.42;1.90;;;;;;;;;;4897890;29;20032;-69
2022/10/09 11:37:19;;;;;;;5.10;2.38;;;;;;;;;;4899406;29;20036;-72
2022/10/09 11:39:44;;;;;;;3.28;1.65;;;;;;;;;;4899164;29;20052;-72
2022/10/09 11:42:12;;;;;;;5.93;2.38;;;;;;;;;;4895858;29;20036;-71
2022/10/09 11:44:48;;;;;;;4.00;1.90;;;;;;;;;;4895355;29;20050;-71
2022/10/09 11:47:32;;;;;;;2.53;2.05;;;;;;;;;;4898425;29;20035;-72
2022/10/09 11:49:57;;;;;;;2.63;2.00;;;;;;;;;;4907550;29;20031;-72
2022/10/09 11:52:27;;;;;;;3.13;2.03;;;;;;;;;;4936682;29;20080;-71
2022/10/09 11:54:52;;;;;;;2.40;1.77;;;;;;;;;;4934358;29;20034;-71
2022/10/09 11:57:28;;;;;;;3.95;1.90;;;;;;;;;;4934836;29;20035;-72
2022/10/09 12:00:04;;;;;;;2.08;1.70;;;;;;;;;;4935896;29;20111;-71
2022/10/09 12:02:30;;;;;;;1.95;1.85;;;;;;;;;;4936331;29;20028;-73
2022/10/09 12:04:55;;;;;;;2.75;2.00;;;;;;;;;;4937194;28;20968;-72
2022/10/09 12:07:25;;;;;;;2.28;2.03;;;;;;;;;;4938395;29;20055;-69
2022/10/09 12:09:55;;;;;;;2.75;2.25;;;;;;;;;;4936021;29;20058;-69
2022/10/09 12:12:21;;;;;;;2.50;2.30;;;;;;;;;;4936329;28;20138;-69
2022/10/09 12:14:48;;;;;;;2.22;2.03;;;;;;;;;;4935226;28;20577;-68
2022/10/09 12:17:15;;;;;;;5.13;1.88;;;;;;;;;;4935878;29;20027;-69
2022/10/09 12:19:42;;;;;;;2.85;2.63;;;;;;;;;;4935317;29;20051;-70
2022/10/09 12:22:10;;;;;;;3.38;2.10;;;;;;;;;;4935821;29;20116;-69
2022/10/09 12:24:40;;;;;;;2.10;1.90;;;;;;;;;;4935559;29;20076;-66
2022/10/09 12:27:06;;;;;;;3.22;2.13;;;;;;;;;;4936870;28;20613;-70
2022/10/09 12:29:46;;;;;;;3.22;2.70;;;;;;;;;;4922864;29;20035;-70
2022/10/09 12:32:31;;;;;;;5.35;3.80;;;;;;;;;;4933028;29;20546;-70
2022/10/09 12:34:56;;;;;;;;;;;;;;;;;;4933934;29;20046;-71
2022/10/09 12:37:30;;;;;;;2.25;2.05;;;;;;;;;;4923748;29;19910;-70
2022/10/09 12:40:05;;;;;;;5.00;1.98;;;;;;;;;;4936483;28;20724;-71
2022/10/09 12:42:30;;;;;;;3.15;2.40;;;;;;;;;;4921132;29;20878;-69
2022/10/09 12:44:56;;;;;;;3.25;2.30;;;;;;;;;;4935013;29;20150;-67
2022/10/09 12:47:21;;;;;;;3.50;2.33;;;;;;;;;;4935238;29;20023;-67
2022/10/09 12:50:17;;;;;;;2.22;2.08;;;;;;;;;;4935553;29;20474;-67
2022/10/09 12:52:56;;;;;;;2.40;2.20;;;;;;;;;;4935574;29;20043;-68
2022/10/09 12:55:28;;;;;;;6.03;3.00;;;;;;;;;;4936659;29;20031;-66
2022/10/09 12:57:59;;;;;;;4.55;2.30;;;;;;;;;;4935988;29;20058;-66
2022/10/09 13:00:24;;;;;;;3.47;2.03;;;;;;;;;;4935474;29;20654;-67
2022/10/09 13:02:50;;;;;;;2.75;1.95;;;;;;;;;;4934329;29;20555;-67
2022/10/09 13:05:15;;;;;;;4.03;2.45;;;;;;;;;;4936022;29;20472;-72
2022/10/09 13:07:41;;;;;;;3.65;2.13;;;;;;;;;;4935255;29;20447;-72
2022/10/09 13:10:26;;;;;;;3.20;2.20;;;;;;;;;;4936300;29;20023;-70
2022/10/09 13:12:54;;;;;;;3.33;3.03;;;;;;;;;;4934079;28;20054;-69
2022/10/09 13:15:34;;;;;;;5.15;1.90;;;;;;;;;;4920529;29;20043;-70
2022/10/09 13:18:00;;;;;;;3.83;1.98;;;;;;;;;;4935267;29;20034;-69
2022/10/09 13:20:25;;;;;;;4.50;2.33;;;;;;;;;;4935180;29;20028;-68
2022/10/09 13:22:55;;;;;;;2.38;2.17;;;;;;;;;;4936122;29;20145;-69
2022/10/09 13:25:20;;;;;;;3.10;2.15;;;;;;;;;;4933737;29;20036;-68
2022/10/09 13:27:45;;;;;;;2.45;2.10;;;;;;;;;;4933731;29;20397;-68
2022/10/09 13:30:11;;;;;;;4.25;1.90;;;;;;;;;;4929696;29;20121;-69
2022/10/09 13:32:36;;;;;;;3.10;1.70;;;;;;;;;;4931194;29;20535;-71
2022/10/09 13:35:01;;;;;;;5.57;2.50;;;;;;;;;;4932703;29;20442;-71
2022/10/09 13:37:27;;;;;;;3.63;1.90;;;;;;;;;;4915439;29;20039;-70
2022/10/09 13:39:53;;;;;;;2.60;1.90;;;;;;;;;;4933643;29;20356;-69
2022/10/09 13:42:19;;;;;;;4.43;1.90;;;;;;;;;;4920535;29;20035;-69
2022/10/09 13:44:44;;;;;;;1.83;1.73;;;;;;;;;;4935612;29;20676;-71
2022/10/09 13:47:09;;;;;;;2.38;1.73;;;;;;;;;;4933232;29;20035;-71
2022/10/09 13:49:35;;;;;;;2.50;1.80;;;;;;;;;;4935129;29;20035;-69
2022/10/09 13:52:00;;;;;;;2.67;1.90;;;;;;;;;;4934743;28;20050;-69
2022/10/09 13:54:25;;;;;;;2.10;1.80;;;;;;;;;;4924299;29;20039;-71
2022/10/09 13:56:51;;;;;;;1.73;1.58;;;;;;;;;;4931853;28;20044;-71
2022/10/09 13:59:16;;;;;;;1.88;1.77;;;;;;;;;;4934314;29;20547;-71
2022/10/09 14:01:41;;;;;;;1.60;1.50;;;;;;;;;;4934779;29;20031;-70
2022/10/09 14:04:06;;;;;;;3.30;2.50;;;;;;;;;;4933152;29;20048;-71
2022/10/09 14:06:35;;;;;;;2.65;2.45;;;;;;;;;;4932952;28;20035;-70
2022/10/09 14:09:01;;;;;;;2.95;2.08;;;;;;;;;;4932423;29;20043;-70
2022/10/09 14:11:26;;;;;;;2.83;2.22;;;;;;;;;;4933174;29;20052;-69
2022/10/09 14:13:52;;;;;;;2.28;1.77;;;;;;;;;;4934432;28;20024;-71
2022/10/09 14:16:17;;;;;;;3.15;2.38;;;;;;;;;;4934634;29;20063;-71
2022/10/09 14:18:42;;;;;;;2.40;2.20;;;;;;;;;;4933727;29;20050;-71
2022/10/09 14:21:11;;;;;;;3.10;1.90;;;;;;;;;;4934231;29;20043;-68
2022/10/09 14:23:37;;;;;;;2.30;2.13;;;;;;;;;;4933432;29;20441;-72
2022/10/09 14:26:05;;;;;;;2.70;2.47;;;;;;;;;;4932613;29;20035;-73
2022/10/09 14:28:31;;;;;;;5.15;2.92;;;;;;;;;;4931991;29;20027;-72
2022/10/09 14:30:56;;;;;;;3.35;2.72;;;;;;;;;;4932906;29;20186;-72
2022/10/09 14:33:22;;;;;;;3.25;2.15;;;;;;;;;;4933877;29;20020;-72
2022/10/09 14:35:47;;;;;;;4.95;2.58;;;;;;;;;;4930098;29;20766;-73
2022/10/09 14:38:12;;;;;;;3.30;2.10;;;;;;;;;;4930167;29;20035;-73
2022/10/09 14:40:41;;;;;;;4.32;2.35;;;;;;;;;;4932081;29;20035;-68
2022/10/09 14:43:06;;;;;;;2.83;2.22;;;;;;;;;;4934207;29;20647;-71
2022/10/09 14:45:32;;;;;;;2.60;2.35;;;;;;;;;;4917000;29;20027;-71
2022/10/09 14:47:58;;;;;;;6.45;2.60;;;;;;;;;;4929062;29;20520;-72
2022/10/09 14:50:23;;;;;;;3.25;2.55;;;;;;;;;;4929968;29;20106;-72
2022/10/09 14:52:48;;;;;;;4.45;2.13;;;;;;;;;;4929377;29;20035;-64
2022/10/09 14:55:13;;;;;;;2.65;2.13;;;;;;;;;;4933129;28;21052;-68
2022/10/09 14:57:38;;;;;;;2.72;2.45;;;;;;;;;;4932578;29;20136;-67
2022/10/09 15:00:04;;;;;;;3.60;2.45;;;;;;;;;;4933212;29;20070;-68
2022/10/09 15:02:29;;;;;;;3.20;2.25;;;;;;;;;;4929731;29;20739;-68
2022/10/09 15:04:55;;;;;;;4.07;2.13;;;;;;;;;;4929974;29;20063;-70
2022/10/09 15:07:20;;;;;;;7.38;2.50;;;;;;;;;;4930440;29;20252;-65
2022/10/09 15:09:45;;;;;;;2.28;2.08;;;;;;;;;;4932836;29;20031;-66
2022/10/09 15:12:10;;;;;;;2.83;2.00;;;;;;;;;;4928821;29;21019;-65
2022/10/09 15:14:36;;;;;;;4.72;2.17;;;;;;;;;;4926867;29;20058;-65
2022/10/09 15:17:01;;;;;;;2.97;1.88;;;;;;;;;;4928348;29;20098;-68
2022/10/09 15:19:26;;;;;;;3.13;2.30;;;;;;;;;;4915013;29;20036;-68
2022/10/09 15:21:52;;;;;;;2.88;1.90;;;;;;;;;;4931455;28;20039;-67